| time (UTC) | temp F | wind direction | speed MPH | gust MPH | rain 1hr in | rain 24hr in | rain mn in | humidity % | barometer mb |
| 20260506193215 | 45 | 360 | 0.0 | 0.0 | 0.00 | 0.00 | 0.17 | 92 | |
| 20260506190211 | 46 | 360 | 0.0 | 0.0 | 0.00 | 0.00 | 0.17 | 92 | |
| 20260506183209 | 47 | 360 | 0.0 | 0.0 | 0.00 | 0.00 | 0.17 | 92 | |
| 20260506180216 | 47 | 360 | 0.0 | 0.0 | 0.00 | 0.00 | 0.17 | 92 | |
| 20260506173210 | 47 | 360 | 0.0 | 0.0 | 0.00 | 0.00 | 0.17 | 92 | |
| 20260506170215 | 47 | 360 | 0.0 | 0.0 | 0.00 | 0.00 | 0.16 | 92 | |
| 20260506163210 | 48 | 360 | 0.0 | 0.0 | 0.00 | 0.00 | 0.15 | 92 | |
| 20260506160210 | 48 | 360 | 0.0 | 0.0 | 0.00 | 0.00 | 0.14 | 91 | |
| 20260506153210 | 49 | 360 | 0.0 | 0.0 | 0.00 | 0.00 | 0.12 | 92 | |
| 20260506150210 | 50 | 360 | 0.0 | 0.0 | 0.00 | 0.00 | 0.06 | 92 | |
| 20260506143210 | 50 | 360 | 0.0 | 0.0 | 0.00 | 0.00 | 0.06 | 92 | |
| 20260506140210 | 51 | 360 | 0.0 | 0.0 | 0.00 | 0.00 | 0.06 | 91 | |
| 20260506133211 | 54 | 360 | 0.0 | 0.0 | 0.00 | 0.00 | 0.06 | 78 | |
| 20260506130211 | 56 | 360 | 0.0 | 0.0 | 0.00 | 0.00 | 0.06 | 74 | |
| 20260506123210 | 58 | 85 | 1.0 | 0.0 | 0.00 | 0.00 | 0.06 | 68 | |
| 20260506120210 | 58 | 17 | 0.0 | 0.0 | 0.00 | 0.00 | 0.06 | 68 | |
| 20260506113217 | 58 | 94 | 0.0 | 0.0 | 0.00 | 0.00 | 0.06 | 65 | |
| 20260506110210 | 57 | 360 | 0.0 | 0.0 | 0.00 | 0.00 | 0.06 | 70 | |
| 20260506100213 | 56 | 360 | 0.0 | 0.0 | 0.00 | 0.00 | 0.06 | 76 | |
| 20260506093211 | 56 | 273 | 0.0 | 0.0 | 0.00 | 0.00 | 0.06 | 72 | |
| 20260506090211 | 56 | 172 | 0.0 | 0.0 | 0.00 | 0.00 | 0.06 | 76 | |
| 20260506083211 | 55 | 360 | 0.0 | 0.0 | 0.00 | 0.00 | 0.06 | 79 | |
| 20260506080212 | 54 | 360 | 0.0 | 0.0 | 0.00 | 0.00 | 0.06 | 82 | |
| 20260506073211 | 52 | 360 | 0.0 | 0.0 | 0.00 | 0.00 | 0.06 | 83 | |
| 20260506070212 | 50 | 360 | 0.0 | 0.0 | 0.00 | 0.00 | 0.06 | 89 | |
| 20260506060210 | 46 | 360 | 0.0 | 0.0 | 0.00 | 0.00 | 0.06 | 96 | |
| 20260506050211 | 45 | 360 | 0.0 | 0.0 | 0.00 | 0.00 | 0.06 | 95 | |
| 20260506043211 | 44 | 360 | 0.0 | 0.0 | 0.00 | 0.00 | 0.06 | 95 | |
| 20260506040211 | 44 | 360 | 0.0 | 0.0 | 0.00 | 0.00 | 0.06 | 93 | |
| 20260506033211 | 44 | 360 | 0.0 | 0.0 | 0.00 | 0.00 | 0.06 | 93 | |
| 20260506030212 | 44 | 360 | 0.0 | 0.0 | 0.00 | 0.00 | 0.06 | 93 | |
| 20260506023211 | 45 | 360 | 0.0 | 0.0 | 0.00 | 0.00 | 0.06 | 92 | |
| 20260506020212 | 45 | 360 | 0.0 | 0.0 | 0.00 | 0.00 | 0.06 | 91 | |
| 20260506013211 | 46 | 360 | 0.0 | 0.0 | 0.00 | 0.00 | 0.06 | 91 | |
| 20260506010213 | 47 | 360 | 0.0 | 0.0 | 0.00 | 0.00 | 0.06 | 92 | |
| 20260506003209 | 47 | 360 | 0.0 | 0.0 | 0.00 | 0.00 | 0.06 | 92 | |
| 20260506000211 | 47 | 360 | 0.0 | 0.0 | 0.00 | 0.00 | 0.06 | 93 | |
| 20260505233209 | 46 | 360 | 0.0 | 0.0 | 0.00 | 0.00 | 0.06 | 93 | |
| 20260505230209 | 47 | 360 | 0.0 | 0.0 | 0.00 | 0.00 | 0.06 | 92 | |
| 20260505223210 | 48 | 360 | 0.0 | 0.0 | 0.00 | 0.00 | 0.06 | 92 | |
| 20260505220209 | 49 | 360 | 0.0 | 0.0 | 0.00 | 0.00 | 0.00 | 92 | |
| 20260505213211 | 49 | 360 | 0.0 | 0.0 | 0.00 | 0.00 | 0.06 | 92 | |
| 20260505210215 | 50 | 360 | 0.0 | 0.0 | 0.00 | 0.00 | 0.06 | 92 | |
| 20260505203209 | 50 | 360 | 0.0 | 0.0 | 0.00 | 0.00 | 0.06 | 89 | |
| 20260505200210 | 51 | 360 | 0.0 | 0.0 | 0.00 | 0.00 | 0.06 | 88 |